Terminal Aerodrome Forecast
Issued by NWS Duluth, MN

Home | Current Version | Previous Version | Text Only | Print | Product List | Glossary On
Versions: 1 2 3 4 5 6 7 8 9 10 11 12 13 14 15 16 17 18 19 20 21 22 23 24 25 26 27 28
421
FTUS43 KDLH 031722
TAFINL
TAF
KINL 031722Z 0318/0418 18006KT P6SM OVC015
     FM032300 16007KT P6SM OVC020
     FM040100 16006KT P6SM OVC015
     FM040600 16007KT P6SM OVC008
     FM040900 15008KT P6SM VCSH OVC008=

USA.gov is the U.S. government's official web portal to all federal, state and local government web resources and services.